createdAt,value
2018-04-30T00:02:22.947Z,74.06
2018-04-30T00:05:29.997Z,74.11
2018-04-30T00:08:36.126Z,74.22
2018-04-30T00:11:42.347Z,74.09
2018-04-30T00:14:47.934Z,73.98
2018-04-30T00:17:53.158Z,73.90
2018-04-30T00:20:58.381Z,74.00
2018-04-30T00:24:03.371Z,74.00
2018-04-30T00:27:09.511Z,74.29
2018-04-30T00:30:15.155Z,74.15
2018-04-30T00:33:20.374Z,74.07
2018-04-30T00:36:26.517Z,74.02
2018-04-30T00:39:33.601Z,73.97
2018-04-30T00:42:39.754Z,74.02
2018-04-30T00:45:44.966Z,74.15
2018-04-30T00:48:51.198Z,74.33
2018-04-30T00:51:57.999Z,74.14
2018-04-30T00:55:03.231Z,74.22
2018-04-30T00:58:08.883Z,74.19
2018-04-30T01:01:14.518Z,74.30
2018-04-30T01:04:20.734Z,74.24
2018-04-30T01:07:26.921Z,74.50
2018-04-30T01:10:33.260Z,74.77
2018-04-30T01:13:40.035Z,74.74
2018-04-30T01:16:45.458Z,74.88
2018-04-30T01:19:50.664Z,75.07
2018-04-30T01:22:55.926Z,75.06
2018-04-30T01:26:01.146Z,75.04
2018-04-30T01:29:06.408Z,75.14
2018-04-30T01:32:11.597Z,75.07
2018-04-30T01:35:16.582Z,75.22
2018-04-30T01:38:21.612Z,75.08
2018-04-30T01:41:26.834Z,75.17
2018-04-30T01:44:33.714Z,75.22
2018-04-30T01:47:40.550Z,75.25
2018-04-30T01:50:46.861Z,75.26
2018-04-30T01:53:53.033Z,75.32
2018-04-30T01:57:00.912Z,75.32
2018-04-30T02:00:06.162Z,75.38
2018-04-30T02:03:10.869Z,75.46
2018-04-30T02:06:16.869Z,75.51
2018-04-30T02:09:22.150Z,75.52
2018-04-30T02:12:28.334Z,75.55
2018-04-30T02:15:34.547Z,75.54
2018-04-30T02:18:39.542Z,75.52
2018-04-30T02:21:44.844Z,75.61
2018-04-30T02:24:50.938Z,75.67
2018-04-30T02:27:57.147Z,75.70
2018-04-30T02:31:04.145Z,75.78
2018-04-30T02:34:10.249Z,75.80
2018-04-30T02:37:16.439Z,75.77
2018-04-30T02:40:22.632Z,75.79
2018-04-30T02:43:28.759Z,75.86
2018-04-30T02:46:34.654Z,75.86
2018-04-30T02:49:41.372Z,75.96
2018-04-30T02:52:47.483Z,76.01
2018-04-30T02:55:53.727Z,76.02
2018-04-30T02:59:00.473Z,76.17
2018-04-30T03:02:06.658Z,76.06
2018-04-30T03:05:13.533Z,76.07
2018-04-30T03:08:18.805Z,76.26
2018-04-30T03:11:25.768Z,76.22
2018-04-30T03:14:32.523Z,76.20
2018-04-30T03:17:39.615Z,76.24
2018-04-30T03:20:45.412Z,76.31
2018-04-30T03:23:50.697Z,76.48
2018-04-30T03:26:57.752Z,76.33
2018-04-30T03:30:03.588Z,76.44
2018-04-30T03:33:09.173Z,76.46
2018-04-30T03:36:15.429Z,76.45
2018-04-30T03:39:20.702Z,76.42
2018-04-30T03:42:25.998Z,76.49
2018-04-30T03:45:32.210Z,76.54
2018-04-30T03:48:38.409Z,76.62
2018-04-30T03:51:44.317Z,76.80
2018-04-30T03:54:50.000Z,76.66
2018-04-30T03:57:56.207Z,76.80
2018-04-30T04:01:14.239Z,77.07
2018-04-30T04:04:30.917Z,77.00
2018-04-30T04:07:36.630Z,77.16
2018-04-30T04:10:42.821Z,77.10
2018-04-30T04:13:48.431Z,77.09
2018-04-30T04:16:53.721Z,77.46
2018-04-30T04:19:59.914Z,77.27
2018-04-30T04:23:05.218Z,77.27
2018-04-30T04:26:11.398Z,77.21
2018-04-30T04:29:16.677Z,77.47
2018-04-30T04:32:22.382Z,77.31
2018-04-30T04:35:27.666Z,77.50
2018-04-30T04:38:33.855Z,77.52
2018-04-30T04:41:40.098Z,77.60
2018-04-30T04:44:45.621Z,77.76
2018-04-30T04:47:51.729Z,77.72
2018-04-30T04:50:57.541Z,77.78
2018-04-30T04:54:02.542Z,77.86
2018-04-30T04:57:07.487Z,77.99
2018-04-30T05:00:13.433Z,77.70
2018-04-30T05:03:19.333Z,77.80
2018-04-30T05:06:25.221Z,78.17
2018-04-30T05:09:32.026Z,78.31
2018-04-30T05:12:39.033Z,77.87
2018-04-30T05:15:46.158Z,78.36
2018-04-30T05:18:52.246Z,77.95
2018-04-30T05:21:58.227Z,78.20
2018-04-30T05:25:03.757Z,78.36
2018-04-30T05:28:10.874Z,77.56
2018-04-30T05:31:16.982Z,77.97
2018-04-30T05:34:22.262Z,78.22
2018-04-30T05:37:28.363Z,78.39
2018-04-30T05:40:33.636Z,78.90
2018-04-30T05:43:38.954Z,78.63
2018-04-30T05:46:44.241Z,78.23
2018-04-30T05:49:50.425Z,78.88
2018-04-30T05:52:56.309Z,78.22
2018-04-30T05:56:01.588Z,78.53
2018-04-30T05:59:06.861Z,78.32
2018-04-30T06:02:12.818Z,77.50
2018-04-30T06:05:18.098Z,77.48
2018-04-30T06:08:23.365Z,77.26
2018-04-30T06:11:28.638Z,77.55
2018-04-30T06:14:33.926Z,77.77
2018-04-30T06:17:40.650Z,77.67
2018-04-30T06:20:47.638Z,77.24
2018-04-30T06:23:53.438Z,77.51
2018-04-30T06:27:01.063Z,77.96
2018-04-30T06:30:06.655Z,77.46
2018-04-30T06:33:11.644Z,77.78
2018-04-30T06:36:17.341Z,77.14
2018-04-30T06:39:22.982Z,77.48
2018-04-30T06:42:27.965Z,77.62
2018-04-30T06:45:32.969Z,77.40
2018-04-30T06:48:38.869Z,77.06
2018-04-30T06:51:44.949Z,77.35
2018-04-30T06:54:51.182Z,77.50
2018-04-30T06:57:56.173Z,77.86
2018-04-30T07:01:02.073Z,77.30
2018-04-30T07:04:08.003Z,77.43
2018-04-30T07:07:12.993Z,77.15
2018-04-30T07:10:18.270Z,77.30
2018-04-30T07:13:24.230Z,77.33
2018-04-30T07:16:29.217Z,77.44
2018-04-30T07:19:34.818Z,78.14
2018-04-30T07:22:40.725Z,77.67
2018-04-30T07:25:45.710Z,77.82
2018-04-30T07:28:50.689Z,77.86
2018-04-30T07:31:55.681Z,77.86
2018-04-30T07:35:01.594Z,77.81
2018-04-30T07:38:06.581Z,78.04
2018-04-30T07:41:11.571Z,77.79
2018-04-30T07:44:17.374Z,77.46
2018-04-30T07:47:22.638Z,77.59
2018-04-30T07:50:27.897Z,77.58
2018-04-30T07:53:33.837Z,77.70
2018-04-30T07:56:39.877Z,77.68
2018-04-30T07:59:45.654Z,77.81
2018-04-30T08:02:50.918Z,77.61
2018-04-30T08:05:56.622Z,77.32
2018-04-30T08:09:02.839Z,78.35
2018-04-30T08:12:07.855Z,77.64
2018-04-30T08:15:13.445Z,77.21
2018-04-30T08:18:19.425Z,77.08
2018-04-30T08:21:25.063Z,77.35
2018-04-30T08:24:32.057Z,77.34
2018-04-30T08:27:37.337Z,77.34
2018-04-30T08:30:42.613Z,77.13
2018-04-30T08:33:49.748Z,77.43
2018-04-30T08:36:55.547Z,76.76
2018-04-30T08:40:00.545Z,76.73
2018-04-30T08:43:06.485Z,76.81
2018-04-30T08:46:11.483Z,76.58
2018-04-30T08:49:17.398Z,76.67
2018-04-30T08:52:22.395Z,76.73
2018-04-30T08:55:28.571Z,76.67
2018-04-30T08:58:33.565Z,76.73
2018-04-30T09:01:40.670Z,76.79
2018-04-30T09:04:45.663Z,76.59
2018-04-30T09:07:51.576Z,76.66
2018-04-30T09:10:58.605Z,76.49
2018-04-30T09:14:04.106Z,76.50
2018-04-30T09:17:10.035Z,76.50
2018-04-30T09:20:15.785Z,76.27
2018-04-30T09:23:21.974Z,76.39
2018-04-30T09:26:27.859Z,76.49
2018-04-30T09:29:34.369Z,76.45
2018-04-30T09:32:39.306Z,76.31
2018-04-30T09:35:44.296Z,76.34
2018-04-30T09:38:50.293Z,76.19
2018-04-30T09:41:57.110Z,76.17
2018-04-30T09:45:02.911Z,76.19
2018-04-30T09:48:07.932Z,76.31
2018-04-30T09:51:12.913Z,76.61
2018-04-30T09:54:18.234Z,76.57
2018-04-30T09:57:24.414Z,76.49
2018-04-30T10:00:30.335Z,76.48
2018-04-30T10:03:36.309Z,76.52
2018-04-30T10:06:41.602Z,76.28
2018-04-30T10:09:46.594Z,76.70
2018-04-30T10:12:52.783Z,76.48
2018-04-30T10:15:57.782Z,76.35
2018-04-30T10:19:03.956Z,76.15
2018-04-30T10:22:10.970Z,76.50
2018-04-30T10:25:16.252Z,76.51
2018-04-30T10:28:22.214Z,76.97
2018-04-30T10:31:27.763Z,77.68
2018-04-30T10:34:33.041Z,77.52
2018-04-30T10:37:38.898Z,77.93
2018-04-30T10:40:44.710Z,78.13
2018-04-30T10:43:50.620Z,77.69
2018-04-30T10:46:57.265Z,77.59
2018-04-30T10:50:02.842Z,77.15
2018-04-30T10:53:09.038Z,77.75
2018-04-30T10:56:15.227Z,77.74
2018-04-30T10:59:21.149Z,77.41
2018-04-30T11:02:27.065Z,77.50
2018-04-30T11:05:33.278Z,77.38
2018-04-30T11:08:39.189Z,77.20
2018-04-30T11:11:45.200Z,76.88
2018-04-30T11:14:50.718Z,76.97
2018-04-30T11:17:56.652Z,77.05
2018-04-30T11:21:02.546Z,77.14
2018-04-30T11:24:07.547Z,76.76
2018-04-30T11:27:13.058Z,76.59
2018-04-30T11:30:19.023Z,76.38
2018-04-30T11:33:24.017Z,76.32
2018-04-30T11:36:31.144Z,76.51
2018-04-30T11:39:36.176Z,76.63
2018-04-30T11:42:41.934Z,76.59
2018-04-30T11:45:47.781Z,76.58
2018-04-30T11:48:54.445Z,76.56
2018-04-30T11:52:01.604Z,76.50
2018-04-30T11:55:07.789Z,76.33
2018-04-30T11:58:12.550Z,76.38
2018-04-30T12:01:17.350Z,76.39
2018-04-30T12:04:23.341Z,76.22
2018-04-30T12:07:28.847Z,76.29
2018-04-30T12:10:33.875Z,76.29
2018-04-30T12:13:39.807Z,76.25
2018-04-30T12:16:45.414Z,76.56
2018-04-30T12:19:51.542Z,76.66
2018-04-30T12:22:57.369Z,77.16
2018-04-30T12:26:03.037Z,77.45
2018-04-30T12:29:09.870Z,77.12
2018-04-30T12:32:15.745Z,77.49
2018-04-30T12:35:21.874Z,77.49
2018-04-30T12:38:27.781Z,77.87
2018-04-30T12:41:32.786Z,77.85
2018-04-30T12:44:38.893Z,77.82
2018-04-30T12:47:44.525Z,78.32
2018-04-30T12:50:50.452Z,77.93
2018-04-30T12:53:56.562Z,78.01
2018-04-30T12:57:02.297Z,78.98
2018-04-30T13:00:08.418Z,78.44
2018-04-30T13:03:14.335Z,78.88
2018-04-30T13:06:19.003Z,78.65
2018-04-30T13:09:25.571Z,78.76
2018-04-30T13:12:31.718Z,79.37
2018-04-30T13:15:37.638Z,79.46
2018-04-30T13:18:43.449Z,79.80
2018-04-30T13:21:49.266Z,80.22
2018-04-30T13:24:54.257Z,79.75
2018-04-30T13:28:00.165Z,79.60
2018-04-30T13:31:05.846Z,79.76
2018-04-30T13:34:11.349Z,79.20
2018-04-30T13:37:16.333Z,79.72
2018-04-30T13:40:21.930Z,79.66
2018-04-30T13:43:26.939Z,79.63
2018-04-30T13:46:32.938Z,79.69
2018-04-30T13:49:38.453Z,79.68
2018-04-30T13:52:44.356Z,79.52
2018-04-30T13:55:50.369Z,80.19
2018-04-30T13:58:55.854Z,79.85
2018-04-30T14:02:01.766Z,80.16
2018-04-30T14:05:07.689Z,80.41
2018-04-30T14:08:12.920Z,80.76
2018-04-30T14:11:18.811Z,80.85
2018-04-30T14:14:24.605Z,81.01
2018-04-30T14:17:29.626Z,80.58
2018-04-30T14:20:34.601Z,80.58
2018-04-30T14:23:40.022Z,80.78
2018-04-30T14:26:45.910Z,80.88
2018-04-30T14:29:50.890Z,80.73
2018-04-30T14:32:57.401Z,80.71
2018-04-30T14:36:02.050Z,80.72
2018-04-30T14:39:07.613Z,81.24
2018-04-30T14:42:12.361Z,81.02
2018-04-30T14:45:18.029Z,80.95
2018-04-30T14:48:23.530Z,80.98
2018-04-30T14:51:28.589Z,81.02
2018-04-30T14:54:34.517Z,80.74
2018-04-30T14:57:40.418Z,80.69
2018-04-30T15:00:46.222Z,80.32
2018-04-30T15:03:53.049Z,80.11
2018-04-30T15:06:57.793Z,80.09
2018-04-30T15:10:03.394Z,79.86
2018-04-30T15:13:09.369Z,79.92
2018-04-30T15:16:14.865Z,80.06
2018-04-30T15:19:20.073Z,80.05
2018-04-30T15:22:25.557Z,79.94
2018-04-30T15:25:32.358Z,79.54
2018-04-30T15:28:38.245Z,79.35
2018-04-30T15:31:44.726Z,78.96
2018-04-30T15:34:50.218Z,78.94
2018-04-30T15:37:55.201Z,78.79
2018-04-30T15:41:01.081Z,78.50
2018-04-30T15:44:06.129Z,78.09
2018-04-30T15:47:12.017Z,78.31
2018-04-30T15:50:17.815Z,78.16
2018-04-30T15:53:23.697Z,78.09
2018-04-30T15:56:28.686Z,77.83
2018-04-30T15:59:34.569Z,77.70
2018-04-30T16:02:40.366Z,77.50
2018-04-30T16:05:45.371Z,77.33
2018-04-30T16:08:50.390Z,76.46
2018-04-30T16:11:56.601Z,76.38
2018-04-30T16:15:02.343Z,76.42
2018-04-30T16:18:08.277Z,76.31
2018-04-30T16:21:13.295Z,76.44
2018-04-30T16:24:19.273Z,75.75
2018-04-30T16:27:24.790Z,75.89
2018-04-30T16:30:29.965Z,75.62
2018-04-30T16:33:35.019Z,76.06
2018-04-30T16:36:40.046Z,75.67
2018-04-30T16:39:44.807Z,75.61
2018-04-30T16:42:51.366Z,75.49
2018-04-30T16:45:56.360Z,75.19
2018-04-30T16:49:01.971Z,74.97
2018-04-30T16:52:08.829Z,74.98
2018-04-30T16:55:14.806Z,74.57
2018-04-30T16:58:20.302Z,74.82
2018-04-30T17:01:26.200Z,74.81
2018-04-30T17:04:31.186Z,74.91
2018-04-30T17:07:36.170Z,74.70
2018-04-30T17:10:42.070Z,74.29
2018-04-30T17:13:46.745Z,74.45
2018-04-30T17:16:52.000Z,74.42
2018-04-30T17:19:57.286Z,74.42
2018-04-30T17:23:02.274Z,74.30
2018-04-30T17:26:07.257Z,74.26
2018-04-30T17:29:13.253Z,74.18
2018-04-30T17:32:19.029Z,74.31
2018-04-30T17:35:24.961Z,73.71
2018-04-30T17:38:30.941Z,74.07
2018-04-30T17:41:36.438Z,73.30
2018-04-30T17:44:41.432Z,73.63
2018-04-30T17:47:46.431Z,73.77
2018-04-30T17:50:52.327Z,73.49
2018-04-30T17:53:57.382Z,73.98
2018-04-30T17:57:02.586Z,74.08
2018-04-30T18:00:08.198Z,73.98
2018-04-30T18:03:13.189Z,74.13
2018-04-30T18:06:18.765Z,74.30
2018-04-30T18:09:24.686Z,74.24
2018-04-30T18:12:31.491Z,74.52
2018-04-30T18:15:37.173Z,74.29
2018-04-30T18:18:43.085Z,74.01
2018-04-30T18:21:48.673Z,73.91
2018-04-30T18:24:53.669Z,74.04
2018-04-30T18:27:59.565Z,73.33
2018-04-30T18:31:04.555Z,73.94
2018-04-30T18:34:09.834Z,73.69
2018-04-30T18:37:16.553Z,73.61
2018-04-30T18:40:22.555Z,73.11
2018-04-30T18:43:28.473Z,73.83
2018-04-30T18:46:33.933Z,73.51
2018-04-30T18:49:39.138Z,73.71
2018-04-30T18:52:45.035Z,73.87
2018-04-30T18:55:51.206Z,73.56
2018-04-30T18:58:57.010Z,73.90
2018-04-30T19:02:02.852Z,74.15
2018-04-30T19:05:08.745Z,74.05
2018-04-30T19:08:14.646Z,74.31
2018-04-30T19:11:20.557Z,74.05
2018-04-30T19:14:26.516Z,74.30
2018-04-30T19:17:32.489Z,73.85
2018-04-30T19:20:37.489Z,73.50
2018-04-30T19:23:42.511Z,72.92
2018-04-30T19:26:49.605Z,73.17
2018-04-30T19:29:55.096Z,72.64
2018-04-30T19:33:00.986Z,73.30
2018-04-30T19:36:05.979Z,72.53
2018-04-30T19:39:10.957Z,72.72
2018-04-30T19:42:16.351Z,73.06
2018-04-30T19:45:22.183Z,73.34
2018-04-30T19:48:28.169Z,73.25
2018-04-30T19:51:34.090Z,72.78
2018-04-30T19:54:40.906Z,73.18
2018-04-30T19:57:46.825Z,73.15
2018-04-30T20:00:52.797Z,72.75
2018-04-30T20:03:58.314Z,73.09
2018-04-30T20:07:03.578Z,73.04
2018-04-30T20:10:09.495Z,73.28
2018-04-30T20:13:14.492Z,73.02
2018-04-30T20:16:20.105Z,72.86
2018-04-30T20:19:25.964Z,72.85
2018-04-30T20:22:30.957Z,72.72
2018-04-30T20:25:36.897Z,72.43
2018-04-30T20:28:41.884Z,72.42
2018-04-30T20:31:46.870Z,72.42
2018-04-30T20:34:51.632Z,72.61
2018-04-30T20:37:57.374Z,72.64
2018-04-30T20:41:03.423Z,73.00
2018-04-30T20:44:09.221Z,72.55
2018-04-30T20:47:15.425Z,72.72
2018-04-30T20:50:21.061Z,72.66
2018-04-30T20:53:27.051Z,72.62
2018-04-30T20:56:32.732Z,72.75
2018-04-30T20:59:37.717Z,72.85
2018-04-30T21:02:43.615Z,73.07
2018-04-30T21:05:49.598Z,73.11
2018-04-30T21:09:06.093Z,73.25
2018-04-30T21:12:12.232Z,73.32
2018-04-30T21:15:18.879Z,73.30
2018-04-30T21:18:24.382Z,73.36
2018-04-30T21:21:31.938Z,73.33
2018-04-30T21:24:37.274Z,73.57
2018-04-30T21:27:42.685Z,73.61
2018-04-30T21:30:47.954Z,73.67
2018-04-30T21:33:53.865Z,73.82
2018-04-30T21:36:58.877Z,73.83
2018-04-30T21:40:03.434Z,73.52
2018-04-30T21:43:09.298Z,73.83
2018-04-30T21:46:14.304Z,73.83
2018-04-30T21:49:19.477Z,74.03
2018-04-30T21:52:25.662Z,74.00
2018-04-30T21:55:31.748Z,74.01
2018-04-30T21:58:38.547Z,74.08
2018-04-30T22:01:44.541Z,74.14
2018-04-30T22:04:50.380Z,74.22
2018-04-30T22:07:55.362Z,74.07
2018-04-30T22:11:00.659Z,74.22
2018-04-30T22:14:05.651Z,74.32
2018-04-30T22:17:11.609Z,74.19
2018-04-30T22:20:17.462Z,74.17
2018-04-30T22:23:23.697Z,74.08
2018-04-30T22:26:29.577Z,74.15
2018-04-30T22:29:35.765Z,74.00
2018-04-30T22:32:41.665Z,73.82
2018-04-30T22:35:47.874Z,73.71
2018-04-30T22:38:52.866Z,73.76
2018-04-30T22:41:58.732Z,73.84
2018-04-30T22:45:04.581Z,73.89
2018-04-30T22:48:09.845Z,73.91
2018-04-30T22:51:15.834Z,74.05
2018-04-30T22:54:22.251Z,73.96
2018-04-30T22:57:27.557Z,73.98
2018-04-30T23:00:32.485Z,74.03
2018-04-30T23:03:37.501Z,74.18
2018-04-30T23:06:42.771Z,74.12
2018-04-30T23:09:48.046Z,74.15
2018-04-30T23:12:53.309Z,73.97
2018-04-30T23:16:00.423Z,74.17
2018-04-30T23:19:06.550Z,73.94
2018-04-30T23:22:15.325Z,74.31
2018-04-30T23:25:20.966Z,74.26
2018-04-30T23:28:26.747Z,74.29
2018-04-30T23:31:33.554Z,74.33
2018-04-30T23:34:38.826Z,74.50
2018-04-30T23:37:44.108Z,74.47
2018-04-30T23:40:50.274Z,74.42
2018-04-30T23:43:56.453Z,74.69
2018-04-30T23:47:01.437Z,74.76
2018-04-30T23:50:07.603Z,74.68
2018-04-30T23:53:13.674Z,74.66
2018-04-30T23:56:19.837Z,74.47
2018-04-30T23:59:26.117Z,74.48
